sensor_id;sensor_type;location;lat;lon;timestamp;temperature;humidity
7920;DHT22;18778;47.610;9.776;2023-08-20T00:00:18;20.20;99.90
7920;DHT22;18778;47.610;9.776;2023-08-20T00:02:46;20.20;99.90
7920;DHT22;18778;47.610;9.776;2023-08-20T00:05:13;20.10;99.90
7920;DHT22;18778;47.610;9.776;2023-08-20T00:07:39;20.20;99.90
7920;DHT22;18778;47.610;9.776;2023-08-20T00:10:05;20.10;99.90
7920;DHT22;18778;47.610;9.776;2023-08-20T00:12:31;20.00;99.90
7920;DHT22;18778;47.610;9.776;2023-08-20T00:15:01;19.80;99.90
7920;DHT22;18778;47.610;9.776;2023-08-20T00:17:35;19.70;99.90
7920;DHT22;18778;47.610;9.776;2023-08-20T00:20:02;19.60;99.90
7920;DHT22;18778;47.610;9.776;2023-08-20T00:22:34;19.60;99.90
7920;DHT22;18778;47.610;9.776;2023-08-20T00:25:00;19.70;99.90
7920;DHT22;18778;47.610;9.776;2023-08-20T00:27:26;19.60;99.90
7920;DHT22;18778;47.610;9.776;2023-08-20T00:29:52;19.50;99.90
7920;DHT22;18778;47.610;9.776;2023-08-20T00:32:17;19.40;99.90
7920;DHT22;18778;47.610;9.776;2023-08-20T00:34:43;19.20;99.90
7920;DHT22;18778;47.610;9.776;2023-08-20T00:37:09;19.10;99.90
7920;DHT22;18778;47.610;9.776;2023-08-20T00:39:34;19.10;99.90
7920;DHT22;18778;47.610;9.776;2023-08-20T00:42:00;19.10;99.90
7920;DHT22;18778;47.610;9.776;2023-08-20T00:44:25;19.20;99.90
7920;DHT22;18778;47.610;9.776;2023-08-20T00:46:51;19.30;99.90
7920;DHT22;18778;47.610;9.776;2023-08-20T00:49:18;19.20;99.90
7920;DHT22;18778;47.610;9.776;2023-08-20T00:51:44;19.10;99.90
7920;DHT22;18778;47.610;9.776;2023-08-20T00:54:10;19.10;99.90
7920;DHT22;18778;47.610;9.776;2023-08-20T00:56:36;19.00;99.90
7920;DHT22;18778;47.610;9.776;2023-08-20T00:59:04;18.90;99.90
7920;DHT22;18778;47.610;9.776;2023-08-20T01:01:30;18.80;99.90
7920;DHT22;18778;47.610;9.776;2023-08-20T01:03:56;18.80;99.90
7920;DHT22;18778;47.610;9.776;2023-08-20T01:12:00;18.90;99.90
7920;DHT22;18778;47.610;9.776;2023-08-20T01:14:25;19.00;99.90
7920;DHT22;18778;47.610;9.776;2023-08-20T01:16:51;18.90;99.90
7920;DHT22;18778;47.610;9.776;2023-08-20T01:19:19;19.00;99.90
7920;DHT22;18778;47.610;9.776;2023-08-20T01:22:05;18.80;99.90
7920;DHT22;18778;47.610;9.776;2023-08-20T01:30:14;19.10;99.90
7920;DHT22;18778;47.610;9.776;2023-08-20T01:32:41;19.10;99.90
7920;DHT22;18778;47.610;9.776;2023-08-20T01:35:12;19.00;99.90
7920;DHT22;18778;47.610;9.776;2023-08-20T01:37:39;18.90;99.90
7920;DHT22;18778;47.610;9.776;2023-08-20T01:40:06;18.80;99.90
7920;DHT22;18778;47.610;9.776;2023-08-20T01:42:33;18.70;99.90
7920;DHT22;18778;47.610;9.776;2023-08-20T01:44:58;18.60;99.90
7920;DHT22;18778;47.610;9.776;2023-08-20T01:47:24;18.50;99.90
7920;DHT22;18778;47.610;9.776;2023-08-20T01:49:49;18.40;99.90
7920;DHT22;18778;47.610;9.776;2023-08-20T01:52:15;18.60;99.90
7920;DHT22;18778;47.610;9.776;2023-08-20T01:54:40;18.20;99.90
7920;DHT22;18778;47.610;9.776;2023-08-20T01:57:06;18.20;99.90
7920;DHT22;18778;47.610;9.776;2023-08-20T01:59:31;18.30;99.90
7920;DHT22;18778;47.610;9.776;2023-08-20T02:01:57;18.40;99.90
7920;DHT22;18778;47.610;9.776;2023-08-20T02:04:23;18.40;99.90
7920;DHT22;18778;47.610;9.776;2023-08-20T02:06:48;18.40;99.90
7920;DHT22;18778;47.610;9.776;2023-08-20T02:09:14;18.40;99.90
7920;DHT22;18778;47.610;9.776;2023-08-20T02:11:39;18.20;99.90
7920;DHT22;18778;47.610;9.776;2023-08-20T02:14:05;18.30;99.90
7920;DHT22;18778;47.610;9.776;2023-08-20T02:16:30;18.30;99.90
7920;DHT22;18778;47.610;9.776;2023-08-20T02:18:56;18.40;99.90
7920;DHT22;18778;47.610;9.776;2023-08-20T02:21:21;18.30;99.90
7920;DHT22;18778;47.610;9.776;2023-08-20T02:23:47;18.20;99.90
7920;DHT22;18778;47.610;9.776;2023-08-20T02:26:13;18.00;99.90
7920;DHT22;18778;47.610;9.776;2023-08-20T02:28:40;18.00;99.90
7920;DHT22;18778;47.610;9.776;2023-08-20T02:31:05;18.50;99.90
7920;DHT22;18778;47.610;9.776;2023-08-20T02:33:31;18.50;99.90
7920;DHT22;18778;47.610;9.776;2023-08-20T02:36:03;18.10;99.90
7920;DHT22;18778;47.610;9.776;2023-08-20T02:38:29;18.20;99.90
7920;DHT22;18778;47.610;9.776;2023-08-20T02:40:55;18.20;99.90
7920;DHT22;18778;47.610;9.776;2023-08-20T02:43:21;18.20;99.90
7920;DHT22;18778;47.610;9.776;2023-08-20T02:45:46;18.10;99.90
7920;DHT22;18778;47.610;9.776;2023-08-20T02:48:13;18.20;99.90
7920;DHT22;18778;47.610;9.776;2023-08-20T02:50:39;18.20;99.90
7920;DHT22;18778;47.610;9.776;2023-08-20T02:53:04;18.40;99.90
7920;DHT22;18778;47.610;9.776;2023-08-20T02:55:31;18.20;99.90
7920;DHT22;18778;47.610;9.776;2023-08-20T02:57:57;18.20;99.90
7920;DHT22;18778;47.610;9.776;2023-08-20T03:00:23;18.50;99.90
7920;DHT22;18778;47.610;9.776;2023-08-20T03:02:49;18.10;99.90
7920;DHT22;18778;47.610;9.776;2023-08-20T03:05:14;18.10;99.90
7920;DHT22;18778;47.610;9.776;2023-08-20T03:07:40;18.30;99.90
7920;DHT22;18778;47.610;9.776;2023-08-20T03:10:06;18.10;99.90
7920;DHT22;18778;47.610;9.776;2023-08-20T03:12:32;18.00;99.90
7920;DHT22;18778;47.610;9.776;2023-08-20T03:14:59;18.00;99.90
7920;DHT22;18778;47.610;9.776;2023-08-20T03:17:25;18.60;99.90
7920;DHT22;18778;47.610;9.776;2023-08-20T03:19:58;18.40;99.90
7920;DHT22;18778;47.610;9.776;2023-08-20T03:22:25;17.90;99.90
7920;DHT22;18778;47.610;9.776;2023-08-20T03:24:51;18.40;99.90
7920;DHT22;18778;47.610;9.776;2023-08-20T03:27:17;17.90;99.90
7920;DHT22;18778;47.610;9.776;2023-08-20T03:29:43;17.80;99.90
7920;DHT22;18778;47.610;9.776;2023-08-20T03:32:09;18.50;99.90
7920;DHT22;18778;47.610;9.776;2023-08-20T03:34:35;17.70;99.90
7920;DHT22;18778;47.610;9.776;2023-08-20T03:37:01;17.60;99.90
7920;DHT22;18778;47.610;9.776;2023-08-20T03:39:27;17.60;99.90
7920;DHT22;18778;47.610;9.776;2023-08-20T03:41:52;17.70;99.90
7920;DHT22;18778;47.610;9.776;2023-08-20T03:44:18;17.70;99.90
7920;DHT22;18778;47.610;9.776;2023-08-20T03:46:44;17.70;99.90
7920;DHT22;18778;47.610;9.776;2023-08-20T03:49:10;18.10;99.90
7920;DHT22;18778;47.610;9.776;2023-08-20T03:51:36;18.60;99.90
7920;DHT22;18778;47.610;9.776;2023-08-20T03:54:02;17.70;99.90
7920;DHT22;18778;47.610;9.776;2023-08-20T03:56:27;17.70;99.90
7920;DHT22;18778;47.610;9.776;2023-08-20T03:58:53;17.70;99.90
7920;DHT22;18778;47.610;9.776;2023-08-20T04:01:19;17.70;99.90
7920;DHT22;18778;47.610;9.776;2023-08-20T04:03:48;17.70;99.90
7920;DHT22;18778;47.610;9.776;2023-08-20T04:06:14;17.80;99.90
7920;DHT22;18778;47.610;9.776;2023-08-20T04:08:39;17.70;99.90
7920;DHT22;18778;47.610;9.776;2023-08-20T04:11:05;17.80;99.90
7920;DHT22;18778;47.610;9.776;2023-08-20T04:13:31;17.70;99.90
7920;DHT22;18778;47.610;9.776;2023-08-20T04:15:57;17.70;99.90
7920;DHT22;18778;47.610;9.776;2023-08-20T04:18:22;17.70;99.90
7920;DHT22;18778;47.610;9.776;2023-08-20T04:20:50;17.70;99.90
7920;DHT22;18778;47.610;9.776;2023-08-20T04:23:16;17.60;99.90
7920;DHT22;18778;47.610;9.776;2023-08-20T04:25:41;17.90;99.90
7920;DHT22;18778;47.610;9.776;2023-08-20T04:28:07;17.60;99.90
7920;DHT22;18778;47.610;9.776;2023-08-20T04:30:34;18.50;99.90
7920;DHT22;18778;47.610;9.776;2023-08-20T04:33:00;17.40;99.90
7920;DHT22;18778;47.610;9.776;2023-08-20T04:35:25;17.50;99.90
7920;DHT22;18778;47.610;9.776;2023-08-20T04:37:51;17.20;99.90
7920;DHT22;18778;47.610;9.776;2023-08-20T04:40:17;18.50;99.90
7920;DHT22;18778;47.610;9.776;2023-08-20T04:42:42;17.30;99.90
7920;DHT22;18778;47.610;9.776;2023-08-20T04:45:08;17.20;99.90
7920;DHT22;18778;47.610;9.776;2023-08-20T04:47:35;17.20;99.90
7920;DHT22;18778;47.610;9.776;2023-08-20T04:50:00;17.30;99.90
7920;DHT22;18778;47.610;9.776;2023-08-20T04:52:26;17.20;99.90
7920;DHT22;18778;47.610;9.776;2023-08-20T04:54:52;17.30;99.90
7920;DHT22;18778;47.610;9.776;2023-08-20T04:57:17;17.40;99.90
7920;DHT22;18778;47.610;9.776;2023-08-20T04:59:43;18.60;99.90
7920;DHT22;18778;47.610;9.776;2023-08-20T05:02:11;17.40;99.90
7920;DHT22;18778;47.610;9.776;2023-08-20T05:04:37;17.40;99.90
7920;DHT22;18778;47.610;9.776;2023-08-20T05:07:03;17.80;99.90
7920;DHT22;18778;47.610;9.776;2023-08-20T05:09:29;17.20;99.90
7920;DHT22;18778;47.610;9.776;2023-08-20T05:11:55;17.20;99.90
7920;DHT22;18778;47.610;9.776;2023-08-20T05:14:20;17.20;99.90
7920;DHT22;18778;47.610;9.776;2023-08-20T05:16:46;17.30;99.90
7920;DHT22;18778;47.610;9.776;2023-08-20T05:19:11;17.40;99.90
7920;DHT22;18778;47.610;9.776;2023-08-20T05:21:37;17.60;99.90
7920;DHT22;18778;47.610;9.776;2023-08-20T05:24:02;17.70;99.90
7920;DHT22;18778;47.610;9.776;2023-08-20T05:26:29;17.70;99.90
7920;DHT22;18778;47.610;9.776;2023-08-20T05:31:21;17.80;99.90
7920;DHT22;18778;47.610;9.776;2023-08-20T05:33:46;18.30;99.90
7920;DHT22;18778;47.610;9.776;2023-08-20T05:36:12;18.00;99.90
7920;DHT22;18778;47.610;9.776;2023-08-20T05:38:37;18.10;99.90
7920;DHT22;18778;47.610;9.776;2023-08-20T05:41:03;18.10;99.90
7920;DHT22;18778;47.610;9.776;2023-08-20T05:43:28;18.20;99.90
7920;DHT22;18778;47.610;9.776;2023-08-20T05:45:54;18.20;99.90
7920;DHT22;18778;47.610;9.776;2023-08-20T05:48:19;18.30;99.90
7920;DHT22;18778;47.610;9.776;2023-08-20T05:50:45;18.40;99.90
7920;DHT22;18778;47.610;9.776;2023-08-20T05:53:11;18.70;99.90
7920;DHT22;18778;47.610;9.776;2023-08-20T05:55:37;18.60;99.90
7920;DHT22;18778;47.610;9.776;2023-08-20T05:58:03;18.80;99.90
7920;DHT22;18778;47.610;9.776;2023-08-20T06:00:28;19.00;99.90
7920;DHT22;18778;47.610;9.776;2023-08-20T06:02:54;19.10;99.90
7920;DHT22;18778;47.610;9.776;2023-08-20T06:05:19;19.10;99.90
7920;DHT22;18778;47.610;9.776;2023-08-20T06:07:45;19.20;99.90
7920;DHT22;18778;47.610;9.776;2023-08-20T06:10:10;19.30;99.90
7920;DHT22;18778;47.610;9.776;2023-08-20T06:12:37;19.40;99.90
7920;DHT22;18778;47.610;9.776;2023-08-20T06:15:03;19.50;99.90
7920;DHT22;18778;47.610;9.776;2023-08-20T06:17:29;19.60;99.90
7920;DHT22;18778;47.610;9.776;2023-08-20T06:19:54;19.60;99.90
7920;DHT22;18778;47.610;9.776;2023-08-20T06:22:20;19.80;99.90
7920;DHT22;18778;47.610;9.776;2023-08-20T06:24:46;19.90;99.90
7920;DHT22;18778;47.610;9.776;2023-08-20T06:27:11;20.00;99.90
7920;DHT22;18778;47.610;9.776;2023-08-20T06:29:37;20.10;99.90
7920;DHT22;18778;47.610;9.776;2023-08-20T06:32:03;20.30;99.90
7920;DHT22;18778;47.610;9.776;2023-08-20T06:34:28;20.40;99.90
7920;DHT22;18778;47.610;9.776;2023-08-20T06:36:54;20.60;99.90
7920;DHT22;18778;47.610;9.776;2023-08-20T06:39:19;20.80;99.90
7920;DHT22;18778;47.610;9.776;2023-08-20T06:41:45;20.70;99.90
7920;DHT22;18778;47.610;9.776;2023-08-20T06:44:11;20.80;99.90
7920;DHT22;18778;47.610;9.776;2023-08-20T06:46:36;20.80;99.90
7920;DHT22;18778;47.610;9.776;2023-08-20T06:49:02;20.80;99.90
7920;DHT22;18778;47.610;9.776;2023-08-20T06:51:28;21.00;99.90
7920;DHT22;18778;47.610;9.776;2023-08-20T06:53:54;21.00;99.90
7920;DHT22;18778;47.610;9.776;2023-08-20T06:56:22;21.00;99.90
7920;DHT22;18778;47.610;9.776;2023-08-20T06:58:48;21.20;99.90
7920;DHT22;18778;47.610;9.776;2023-08-20T07:01:14;21.30;99.90
7920;DHT22;18778;47.610;9.776;2023-08-20T07:03:41;21.40;99.90
7920;DHT22;18778;47.610;9.776;2023-08-20T07:06:07;21.50;99.90
7920;DHT22;18778;47.610;9.776;2023-08-20T07:08:35;21.70;99.90
7920;DHT22;18778;47.610;9.776;2023-08-20T07:11:01;21.80;99.90
7920;DHT22;18778;47.610;9.776;2023-08-20T07:13:26;22.00;99.90
7920;DHT22;18778;47.610;9.776;2023-08-20T07:15:52;22.20;99.90
7920;DHT22;18778;47.610;9.776;2023-08-20T07:18:18;22.30;99.90
7920;DHT22;18778;47.610;9.776;2023-08-20T07:20:43;22.40;99.90
7920;DHT22;18778;47.610;9.776;2023-08-20T07:23:10;22.50;99.90
7920;DHT22;18778;47.610;9.776;2023-08-20T07:25:40;22.50;99.90
7920;DHT22;18778;47.610;9.776;2023-08-20T07:28:06;22.70;99.90
7920;DHT22;18778;47.610;9.776;2023-08-20T07:30:32;22.80;99.90
7920;DHT22;18778;47.610;9.776;2023-08-20T07:32:58;22.90;99.90
7920;DHT22;18778;47.610;9.776;2023-08-20T07:35:24;22.90;99.90
7920;DHT22;18778;47.610;9.776;2023-08-20T07:37:50;23.10;99.90
7920;DHT22;18778;47.610;9.776;2023-08-20T07:40:16;23.20;99.90
7920;DHT22;18778;47.610;9.776;2023-08-20T07:42:41;23.40;99.90
7920;DHT22;18778;47.610;9.776;2023-08-20T07:45:08;23.50;99.90
7920;DHT22;18778;47.610;9.776;2023-08-20T07:47:37;23.60;99.90
7920;DHT22;18778;47.610;9.776;2023-08-20T07:50:06;23.80;99.90
7920;DHT22;18778;47.610;9.776;2023-08-20T07:52:32;23.80;99.90
7920;DHT22;18778;47.610;9.776;2023-08-20T08:04:52;24.60;99.90
7920;DHT22;18778;47.610;9.776;2023-08-20T08:07:18;24.70;99.90
7920;DHT22;18778;47.610;9.776;2023-08-20T08:09:44;24.80;99.90
7920;DHT22;18778;47.610;9.776;2023-08-20T08:12:11;24.80;99.90
7920;DHT22;18778;47.610;9.776;2023-08-20T08:14:38;25.00;99.90
7920;DHT22;18778;47.610;9.776;2023-08-20T08:17:04;25.20;99.90
7920;DHT22;18778;47.610;9.776;2023-08-20T08:19:30;25.20;99.90
7920;DHT22;18778;47.610;9.776;2023-08-20T08:21:56;25.30;99.90
7920;DHT22;18778;47.610;9.776;2023-08-20T08:24:22;25.60;99.90
7920;DHT22;18778;47.610;9.776;2023-08-20T08:26:47;25.80;99.90
7920;DHT22;18778;47.610;9.776;2023-08-20T08:29:13;26.00;99.90
7920;DHT22;18778;47.610;9.776;2023-08-20T08:31:39;26.20;99.90
7920;DHT22;18778;47.610;9.776;2023-08-20T08:34:04;26.30;99.90
7920;DHT22;18778;47.610;9.776;2023-08-20T08:38:56;26.40;99.90
7920;DHT22;18778;47.610;9.776;2023-08-20T08:41:22;26.50;99.90
7920;DHT22;18778;47.610;9.776;2023-08-20T08:43:51;26.40;99.90
7920;DHT22;18778;47.610;9.776;2023-08-20T08:46:17;26.60;99.90
7920;DHT22;18778;47.610;9.776;2023-08-20T08:48:44;26.50;99.90
7920;DHT22;18778;47.610;9.776;2023-08-20T08:53:36;26.80;99.90
7920;DHT22;18778;47.610;9.776;2023-08-20T08:56:02;27.10;99.90
7920;DHT22;18778;47.610;9.776;2023-08-20T08:58:33;27.10;99.90
7920;DHT22;18778;47.610;9.776;2023-08-20T09:01:00;27.10;99.90
7920;DHT22;18778;47.610;9.776;2023-08-20T09:03:26;27.30;99.90
7920;DHT22;18778;47.610;9.776;2023-08-20T09:06:00;27.30;99.90
7920;DHT22;18778;47.610;9.776;2023-08-20T09:08:30;27.30;99.90
7920;DHT22;18778;47.610;9.776;2023-08-20T09:10:57;27.40;99.90
7920;DHT22;18778;47.610;9.776;2023-08-20T09:13:33;27.40;99.90
7920;DHT22;18778;47.610;9.776;2023-08-20T09:15:59;27.40;99.90
7920;DHT22;18778;47.610;9.776;2023-08-20T09:18:28;27.30;99.90
7920;DHT22;18778;47.610;9.776;2023-08-20T09:20:54;27.40;99.90
7920;DHT22;18778;47.610;9.776;2023-08-20T09:23:21;27.40;99.90
7920;DHT22;18778;47.610;9.776;2023-08-20T09:25:47;27.70;99.90
7920;DHT22;18778;47.610;9.776;2023-08-20T09:28:12;27.90;99.90
7920;DHT22;18778;47.610;9.776;2023-08-20T09:30:38;28.00;99.90
7920;DHT22;18778;47.610;9.776;2023-08-20T09:33:10;28.00;99.90
7920;DHT22;18778;47.610;9.776;2023-08-20T09:35:35;27.80;99.90
7920;DHT22;18778;47.610;9.776;2023-08-20T09:38:02;27.70;99.90
7920;DHT22;18778;47.610;9.776;2023-08-20T09:40:29;27.70;99.90
7920;DHT22;18778;47.610;9.776;2023-08-20T09:42:56;27.80;99.90
7920;DHT22;18778;47.610;9.776;2023-08-20T09:45:25;28.00;99.90
7920;DHT22;18778;47.610;9.776;2023-08-20T09:47:55;28.20;99.90
7920;DHT22;18778;47.610;9.776;2023-08-20T09:50:22;28.40;99.90
7920;DHT22;18778;47.610;9.776;2023-08-20T09:53:00;28.50;99.90
7920;DHT22;18778;47.610;9.776;2023-08-20T09:55:33;28.50;99.90
7920;DHT22;18778;47.610;9.776;2023-08-20T09:58:01;28.60;99.90
7920;DHT22;18778;47.610;9.776;2023-08-20T10:00:27;28.70;99.90
7920;DHT22;18778;47.610;9.776;2023-08-20T10:02:54;28.90;99.90
7920;DHT22;18778;47.610;9.776;2023-08-20T10:05:20;29.00;99.90
7920;DHT22;18778;47.610;9.776;2023-08-20T10:07:47;29.10;99.90
7920;DHT22;18778;47.610;9.776;2023-08-20T10:10:13;29.00;99.90
7920;DHT22;18778;47.610;9.776;2023-08-20T10:12:40;29.00;99.90
7920;DHT22;18778;47.610;9.776;2023-08-20T10:15:10;29.00;99.90
7920;DHT22;18778;47.610;9.776;2023-08-20T10:17:37;29.00;99.90
7920;DHT22;18778;47.610;9.776;2023-08-20T10:20:04;29.00;99.90
7920;DHT22;18778;47.610;9.776;2023-08-20T10:22:41;29.20;99.90
7920;DHT22;18778;47.610;9.776;2023-08-20T10:25:07;29.30;99.90
7920;DHT22;18778;47.610;9.776;2023-08-20T10:27:35;29.50;99.90
7920;DHT22;18778;47.610;9.776;2023-08-20T10:30:03;29.60;99.90
7920;DHT22;18778;47.610;9.776;2023-08-20T10:32:48;29.50;99.90
7920;DHT22;18778;47.610;9.776;2023-08-20T10:38:17;29.80;99.90
7920;DHT22;18778;47.610;9.776;2023-08-20T10:40:58;29.90;98.70
7920;DHT22;18778;47.610;9.776;2023-08-20T10:43:35;30.00;99.90
7920;DHT22;18778;47.610;9.776;2023-08-20T10:46:25;30.10;99.90
7920;DHT22;18778;47.610;9.776;2023-08-20T10:48:55;30.40;99.90
7920;DHT22;18778;47.610;9.776;2023-08-20T10:56:55;30.70;99.70
7920;DHT22;18778;47.610;9.776;2023-08-20T10:59:28;30.60;98.20
7920;DHT22;18778;47.610;9.776;2023-08-20T11:01:56;30.70;96.70
7920;DHT22;18778;47.610;9.776;2023-08-20T11:04:24;30.70;97.90
7920;DHT22;18778;47.610;9.776;2023-08-20T11:06:54;30.80;96.40
7920;DHT22;18778;47.610;9.776;2023-08-20T11:09:22;30.70;98.00
7920;DHT22;18778;47.610;9.776;2023-08-20T11:11:48;30.80;97.90
7920;DHT22;18778;47.610;9.776;2023-08-20T11:14:14;30.90;99.20
7920;DHT22;18778;47.610;9.776;2023-08-20T11:16:41;30.80;96.60
7920;DHT22;18778;47.610;9.776;2023-08-20T11:19:07;31.00;99.90
7920;DHT22;18778;47.610;9.776;2023-08-20T11:21:40;31.20;99.90
7920;DHT22;18778;47.610;9.776;2023-08-20T11:24:07;31.40;99.70
7920;DHT22;18778;47.610;9.776;2023-08-20T11:26:33;31.80;98.60
7920;DHT22;18778;47.610;9.776;2023-08-20T11:29:06;31.90;97.70
7920;DHT22;18778;47.610;9.776;2023-08-20T11:31:32;31.90;97.20
7920;DHT22;18778;47.610;9.776;2023-08-20T11:33:58;31.90;97.30
7920;DHT22;18778;47.610;9.776;2023-08-20T11:36:23;31.90;95.60
7920;DHT22;18778;47.610;9.776;2023-08-20T11:38:53;31.90;96.60
7920;DHT22;18778;47.610;9.776;2023-08-20T11:41:20;32.00;95.60
7920;DHT22;18778;47.610;9.776;2023-08-20T11:43:50;32.00;97.80
7920;DHT22;18778;47.610;9.776;2023-08-20T11:46:20;32.10;98.40
7920;DHT22;18778;47.610;9.776;2023-08-20T11:49:06;32.40;97.90
7920;DHT22;18778;47.610;9.776;2023-08-20T11:51:36;32.40;96.20
7920;DHT22;18778;47.610;9.776;2023-08-20T11:54:05;32.50;97.20
7920;DHT22;18778;47.610;9.776;2023-08-20T11:56:33;32.50;97.80
7920;DHT22;18778;47.610;9.776;2023-08-20T11:59:02;32.50;98.20
7920;DHT22;18778;47.610;9.776;2023-08-20T12:01:31;32.50;96.30
7920;DHT22;18778;47.610;9.776;2023-08-20T12:04:03;32.50;95.60
7920;DHT22;18778;47.610;9.776;2023-08-20T12:06:29;32.40;96.90
7920;DHT22;18778;47.610;9.776;2023-08-20T12:08:59;32.60;96.50
7920;DHT22;18778;47.610;9.776;2023-08-20T12:11:28;32.70;96.00
7920;DHT22;18778;47.610;9.776;2023-08-20T12:13:54;32.90;97.50
7920;DHT22;18778;47.610;9.776;2023-08-20T12:16:23;33.10;94.90
7920;DHT22;18778;47.610;9.776;2023-08-20T12:18:50;33.10;95.90
7920;DHT22;18778;47.610;9.776;2023-08-20T12:21:16;33.40;98.00
7920;DHT22;18778;47.610;9.776;2023-08-20T12:23:42;33.40;92.20
7920;DHT22;18778;47.610;9.776;2023-08-20T12:26:08;33.40;92.60
7920;DHT22;18778;47.610;9.776;2023-08-20T12:28:34;33.40;95.00
7920;DHT22;18778;47.610;9.776;2023-08-20T12:31:00;33.30;92.40
7920;DHT22;18778;47.610;9.776;2023-08-20T12:33:25;33.20;95.00
7920;DHT22;18778;47.610;9.776;2023-08-20T12:35:54;33.20;95.20
7920;DHT22;18778;47.610;9.776;2023-08-20T12:38:20;33.10;96.20
7920;DHT22;18778;47.610;9.776;2023-08-20T12:40:45;33.20;96.40
7920;DHT22;18778;47.610;9.776;2023-08-20T12:43:11;33.40;96.10
7920;DHT22;18778;47.610;9.776;2023-08-20T12:45:37;33.50;94.80
7920;DHT22;18778;47.610;9.776;2023-08-20T12:48:04;33.30;92.00
7920;DHT22;18778;47.610;9.776;2023-08-20T12:50:30;33.20;92.40
7920;DHT22;18778;47.610;9.776;2023-08-20T12:52:56;33.20;92.90
7920;DHT22;18778;47.610;9.776;2023-08-20T12:55:22;33.40;92.80
7920;DHT22;18778;47.610;9.776;2023-08-20T12:57:57;33.60;96.70
7920;DHT22;18778;47.610;9.776;2023-08-20T13:00:24;33.70;91.80
7920;DHT22;18778;47.610;9.776;2023-08-20T13:02:53;33.80;91.80
7920;DHT22;18778;47.610;9.776;2023-08-20T13:05:21;34.00;93.10
7920;DHT22;18778;47.610;9.776;2023-08-20T13:07:47;34.10;94.30
7920;DHT22;18778;47.610;9.776;2023-08-20T13:10:13;34.00;94.10
7920;DHT22;18778;47.610;9.776;2023-08-20T13:12:41;34.10;94.60
7920;DHT22;18778;47.610;9.776;2023-08-20T13:15:08;34.50;93.70
7920;DHT22;18778;47.610;9.776;2023-08-20T13:17:36;34.60;92.50
7920;DHT22;18778;47.610;9.776;2023-08-20T13:20:03;34.70;91.60
7920;DHT22;18778;47.610;9.776;2023-08-20T13:22:30;34.70;90.70
7920;DHT22;18778;47.610;9.776;2023-08-20T13:24:56;34.70;92.00
7920;DHT22;18778;47.610;9.776;2023-08-20T13:27:21;34.90;90.10
7920;DHT22;18778;47.610;9.776;2023-08-20T13:29:47;35.00;90.00
7920;DHT22;18778;47.610;9.776;2023-08-20T13:32:12;35.00;90.90
7920;DHT22;18778;47.610;9.776;2023-08-20T13:34:38;35.10;91.30
7920;DHT22;18778;47.610;9.776;2023-08-20T13:37:04;35.30;93.30
7920;DHT22;18778;47.610;9.776;2023-08-20T13:39:29;35.60;91.50
7920;DHT22;18778;47.610;9.776;2023-08-20T13:41:55;35.80;91.10
7920;DHT22;18778;47.610;9.776;2023-08-20T13:44:21;35.90;86.80
7920;DHT22;18778;47.610;9.776;2023-08-20T13:46:46;35.30;88.10
7920;DHT22;18778;47.610;9.776;2023-08-20T13:49:12;35.30;90.10
7920;DHT22;18778;47.610;9.776;2023-08-20T13:51:38;35.20;90.10
7920;DHT22;18778;47.610;9.776;2023-08-20T13:54:04;35.30;86.80
7920;DHT22;18778;47.610;9.776;2023-08-20T13:58:56;34.90;83.80
7920;DHT22;18778;47.610;9.776;2023-08-20T14:01:22;35.10;89.50
7920;DHT22;18778;47.610;9.776;2023-08-20T14:03:47;35.70;81.50
7920;DHT22;18778;47.610;9.776;2023-08-20T14:06:13;35.70;81.90
7920;DHT22;18778;47.610;9.776;2023-08-20T14:11:05;35.60;85.80
7920;DHT22;18778;47.610;9.776;2023-08-20T14:13:31;35.80;88.10
7920;DHT22;18778;47.610;9.776;2023-08-20T14:15:57;36.00;88.00
7920;DHT22;18778;47.610;9.776;2023-08-20T14:18:23;36.30;87.90
7920;DHT22;18778;47.610;9.776;2023-08-20T14:20:48;37.60;84.70
7920;DHT22;18778;47.610;9.776;2023-08-20T14:25:40;38.50;85.50
7920;DHT22;18778;47.610;9.776;2023-08-20T14:28:07;39.50;84.40
7920;DHT22;18778;47.610;9.776;2023-08-20T14:30:37;40.40;86.60
7920;DHT22;18778;47.610;9.776;2023-08-20T14:33:03;41.00;85.40
7920;DHT22;18778;47.610;9.776;2023-08-20T14:35:30;41.00;85.20
7920;DHT22;18778;47.610;9.776;2023-08-20T14:37:55;40.60;82.10
7920;DHT22;18778;47.610;9.776;2023-08-20T14:40:21;39.00;86.50
7920;DHT22;18778;47.610;9.776;2023-08-20T14:42:47;39.00;87.90
7920;DHT22;18778;47.610;9.776;2023-08-20T14:45:12;38.40;87.40
7920;DHT22;18778;47.610;9.776;2023-08-20T14:47:39;37.70;87.60
7920;DHT22;18778;47.610;9.776;2023-08-20T14:50:06;37.20;88.70
7920;DHT22;18778;47.610;9.776;2023-08-20T14:52:31;36.90;91.10
7920;DHT22;18778;47.610;9.776;2023-08-20T14:54:57;36.50;88.80
7920;DHT22;18778;47.610;9.776;2023-08-20T14:59:50;36.40;90.80
7920;DHT22;18778;47.610;9.776;2023-08-20T15:02:16;36.50;91.10
7920;DHT22;18778;47.610;9.776;2023-08-20T15:07:08;36.00;90.90
7920;DHT22;18778;47.610;9.776;2023-08-20T15:09:34;35.60;90.30
7920;DHT22;18778;47.610;9.776;2023-08-20T15:12:00;35.30;90.90
7920;DHT22;18778;47.610;9.776;2023-08-20T15:14:26;35.10;90.90
7920;DHT22;18778;47.610;9.776;2023-08-20T15:16:51;35.00;92.00
7920;DHT22;18778;47.610;9.776;2023-08-20T15:19:17;34.50;91.00
7920;DHT22;18778;47.610;9.776;2023-08-20T15:21:42;34.40;91.30
7920;DHT22;18778;47.610;9.776;2023-08-20T15:24:08;34.30;92.20
7920;DHT22;18778;47.610;9.776;2023-08-20T15:26:35;34.30;94.10
7920;DHT22;18778;47.610;9.776;2023-08-20T15:29:01;34.50;94.10
7920;DHT22;18778;47.610;9.776;2023-08-20T15:31:26;34.40;91.80
7920;DHT22;18778;47.610;9.776;2023-08-20T15:33:54;34.50;91.30
7920;DHT22;18778;47.610;9.776;2023-08-20T15:36:19;34.40;91.10
7920;DHT22;18778;47.610;9.776;2023-08-20T15:38:45;34.20;91.90
7920;DHT22;18778;47.610;9.776;2023-08-20T15:41:10;34.20;92.20
7920;DHT22;18778;47.610;9.776;2023-08-20T15:43:36;34.30;92.60
7920;DHT22;18778;47.610;9.776;2023-08-20T15:46:02;34.30;92.90
7920;DHT22;18778;47.610;9.776;2023-08-20T15:48:27;34.50;94.70
7920;DHT22;18778;47.610;9.776;2023-08-20T15:50:53;34.80;94.60
7920;DHT22;18778;47.610;9.776;2023-08-20T15:53:19;34.80;94.60
7920;DHT22;18778;47.610;9.776;2023-08-20T15:55:44;34.80;94.30
7920;DHT22;18778;47.610;9.776;2023-08-20T15:58:10;34.90;94.40
7920;DHT22;18778;47.610;9.776;2023-08-20T16:00:36;34.90;94.90
7920;DHT22;18778;47.610;9.776;2023-08-20T16:03:02;34.90;94.30
7920;DHT22;18778;47.610;9.776;2023-08-20T16:05:27;35.10;93.60
7920;DHT22;18778;47.610;9.776;2023-08-20T16:07:53;35.20;93.10
7920;DHT22;18778;47.610;9.776;2023-08-20T16:10:19;35.40;92.60
7920;DHT22;18778;47.610;9.776;2023-08-20T16:12:44;35.70;92.10
7920;DHT22;18778;47.610;9.776;2023-08-20T16:15:10;36.00;90.10
7920;DHT22;18778;47.610;9.776;2023-08-20T16:17:36;36.60;90.80
7920;DHT22;18778;47.610;9.776;2023-08-20T16:20:02;37.20;90.50
7920;DHT22;18778;47.610;9.776;2023-08-20T16:22:30;37.70;86.20
7920;DHT22;18778;47.610;9.776;2023-08-20T16:24:55;37.40;85.80
7920;DHT22;18778;47.610;9.776;2023-08-20T16:27:21;36.80;88.90
7920;DHT22;18778;47.610;9.776;2023-08-20T16:29:49;36.10;92.50